Airfield :
LOGIN :

Register | Disclaimer

   EN    FR    IT 

 










Legend :    VFR   Marginal VFR   IFR   Intensive IFR   Very Intensive IFR
Visi :
Ceiling :
>= 8 km
>= 3000ft
5 to 8 km
1000 to 3000 ft
1500m to 5 km
500 to 1000 ft
800 to 1500m
200 to 500 ft
< 800m
< 200 ft
Symbols :   Thunderstorms  Fog  Heavy snow  Heavy precipitations  Wind > 20 kt
SIGMETs :     Misc.  Thunderstorms  Icing  Turbulence  Mountain Waves  Volcanic Ashes






- Airport Elevation : 277 ft
- IATA code : JER


EGJJ - Jersey

CURRENT METAR :
  • 090920Z 23012KT 9999 FEW017 08/06 Q1006

EXPIRED METARs :
  • 090850Z 23013KT 9999 FEW015 08/05 Q1006
  • 090820Z 23012KT 9999 FEW015 SCT025 08/05 Q1006
  • 090750Z 22011KT 9999 FEW022 07/04 Q1006
  • 090720Z 25013KT 9999 FEW024 08/04 Q1006
  • 090650Z 26012KT 9999 FEW028 08/04 Q1006

TAF TAF EGJJ
Valid from the 09 at 09:00 until the 09 at 18:00 UTC


090802Z 0909/0918 25012KT 9999 FEW020 SCT035
PROB30
TEMPO 0909/0910 25015G25KT 7000 SHRA BKN015TCU
BECMG 0914/0916 19017G27KT 7000 -RA BKN014
PROB30
TEMPO 0915/0918 4000 RA BKN009
ATIS : +44 1534 498 073



MET'MAP, your aeronautical weather chart ! - Copyright ORBIFLY December 2007 - Disclaimer

ORBIFLY MET'MAP TEAM :

Programming & Development : Alexandra Zaïnal
Concept & original design : Baudouin d'Aumeries
Assistance for programming : Marc-Olivier Méhu
Technical & hardware support : Manuel Goepfert

Contact : metmap@orbifly.com




SOURCES & CREDITS :

   NOAA